sensor_id;sensor_type;location;lat;lon;timestamp;P1;durP1;ratioP1;P2;durP2;ratioP2
23370;SDS011;11858;51.056;3.712;2023-08-06T00:00:24;0.10;;;0.10;;
23370;SDS011;11858;51.056;3.712;2023-08-06T00:02:50;10.90;;;2.67;;
23370;SDS011;11858;51.056;3.712;2023-08-06T00:05:16;6.18;;;2.15;;
23370;SDS011;11858;51.056;3.712;2023-08-06T00:07:49;0.10;;;0.10;;
23370;SDS011;11858;51.056;3.712;2023-08-06T00:10:15;5.88;;;2.67;;
23370;SDS011;11858;51.056;3.712;2023-08-06T00:12:42;3.00;;;2.20;;
23370;SDS011;11858;51.056;3.712;2023-08-06T00:15:08;0.10;;;0.10;;
23370;SDS011;11858;51.056;3.712;2023-08-06T00:17:34;8.15;;;2.88;;
23370;SDS011;11858;51.056;3.712;2023-08-06T00:20:00;0.45;;;0.45;;
23370;SDS011;11858;51.056;3.712;2023-08-06T00:22:37;1.45;;;0.88;;
23370;SDS011;11858;51.056;3.712;2023-08-06T00:25:04;15.93;;;5.78;;
23370;SDS011;11858;51.056;3.712;2023-08-06T00:27:30;1.98;;;1.88;;
23370;SDS011;11858;51.056;3.712;2023-08-06T00:29:57;1.15;;;1.00;;
23370;SDS011;11858;51.056;3.712;2023-08-06T00:32:23;19.88;;;7.07;;
23370;SDS011;11858;51.056;3.712;2023-08-06T00:34:49;13.75;;;5.63;;
23370;SDS011;11858;51.056;3.712;2023-08-06T00:37:17;0.20;;;0.20;;
23370;SDS011;11858;51.056;3.712;2023-08-06T00:39:43;0.20;;;0.20;;
23370;SDS011;11858;51.056;3.712;2023-08-06T00:42:10;0.17;;;0.17;;
23370;SDS011;11858;51.056;3.712;2023-08-06T00:44:36;0.57;;;0.40;;
23370;SDS011;11858;51.056;3.712;2023-08-06T00:47:02;0.10;;;0.10;;
23370;SDS011;11858;51.056;3.712;2023-08-06T00:49:28;0.10;;;0.10;;
23370;SDS011;11858;51.056;3.712;2023-08-06T00:51:54;0.10;;;0.10;;
23370;SDS011;11858;51.056;3.712;2023-08-06T00:54:21;0.10;;;0.10;;
23370;SDS011;11858;51.056;3.712;2023-08-06T00:56:47;0.10;;;0.10;;
23370;SDS011;11858;51.056;3.712;2023-08-06T00:59:13;0.10;;;0.10;;
23370;SDS011;11858;51.056;3.712;2023-08-06T01:01:39;0.10;;;0.10;;
23370;SDS011;11858;51.056;3.712;2023-08-06T01:04:05;2.40;;;0.80;;
23370;SDS011;11858;51.056;3.712;2023-08-06T01:09:39;0.10;;;0.10;;
23370;SDS011;11858;51.056;3.712;2023-08-06T01:12:21;0.10;;;0.10;;
23370;SDS011;11858;51.056;3.712;2023-08-06T01:15:00;3.55;;;0.50;;
23370;SDS011;11858;51.056;3.712;2023-08-06T01:17:38;0.25;;;0.25;;
23370;SDS011;11858;51.056;3.712;2023-08-06T01:20:05;0.90;;;0.75;;
23370;SDS011;11858;51.056;3.712;2023-08-06T01:22:31;0.30;;;0.30;;
23370;SDS011;11858;51.056;3.712;2023-08-06T01:24:57;0.10;;;0.10;;
23370;SDS011;11858;51.056;3.712;2023-08-06T01:27:32;3.25;;;1.35;;
23370;SDS011;11858;51.056;3.712;2023-08-06T01:30:06;0.10;;;0.10;;
23370;SDS011;11858;51.056;3.712;2023-08-06T01:32:34;0.10;;;0.10;;
23370;SDS011;11858;51.056;3.712;2023-08-06T01:35:04;0.57;;;0.57;;
23370;SDS011;11858;51.056;3.712;2023-08-06T01:37:30;0.10;;;0.10;;
23370;SDS011;11858;51.056;3.712;2023-08-06T01:39:57;0.10;;;0.10;;
23370;SDS011;11858;51.056;3.712;2023-08-06T01:42:22;0.77;;;0.77;;
23370;SDS011;11858;51.056;3.712;2023-08-06T01:44:48;0.30;;;0.30;;
23370;SDS011;11858;51.056;3.712;2023-08-06T01:47:14;0.10;;;0.10;;
23370;SDS011;11858;51.056;3.712;2023-08-06T01:49:39;0.10;;;0.10;;
23370;SDS011;11858;51.056;3.712;2023-08-06T01:52:05;0.28;;;0.28;;
23370;SDS011;11858;51.056;3.712;2023-08-06T01:54:31;0.30;;;0.30;;
23370;SDS011;11858;51.056;3.712;2023-08-06T01:56:56;1.45;;;0.90;;
23370;SDS011;11858;51.056;3.712;2023-08-06T01:59:25;0.17;;;0.17;;
23370;SDS011;11858;51.056;3.712;2023-08-06T02:01:51;1.13;;;0.93;;
23370;SDS011;11858;51.056;3.712;2023-08-06T02:04:16;0.10;;;0.10;;
23370;SDS011;11858;51.056;3.712;2023-08-06T02:06:42;0.45;;;0.40;;
23370;SDS011;11858;51.056;3.712;2023-08-06T02:09:08;0.20;;;0.20;;
23370;SDS011;11858;51.056;3.712;2023-08-06T02:11:33;0.10;;;0.10;;
23370;SDS011;11858;51.056;3.712;2023-08-06T02:13:59;0.10;;;0.10;;
23370;SDS011;11858;51.056;3.712;2023-08-06T02:16:24;0.10;;;0.10;;
23370;SDS011;11858;51.056;3.712;2023-08-06T02:18:50;0.10;;;0.10;;
23370;SDS011;11858;51.056;3.712;2023-08-06T02:21:16;0.30;;;0.30;;
23370;SDS011;11858;51.056;3.712;2023-08-06T02:23:41;0.10;;;0.10;;
23370;SDS011;11858;51.056;3.712;2023-08-06T02:26:07;0.35;;;0.35;;
23370;SDS011;11858;51.056;3.712;2023-08-06T02:28:33;0.38;;;0.38;;
23370;SDS011;11858;51.056;3.712;2023-08-06T02:30:58;7.95;;;2.25;;
23370;SDS011;11858;51.056;3.712;2023-08-06T02:33:24;1.67;;;0.90;;
23370;SDS011;11858;51.056;3.712;2023-08-06T02:35:50;4.30;;;0.57;;
23370;SDS011;11858;51.056;3.712;2023-08-06T02:38:15;0.50;;;0.35;;
23370;SDS011;11858;51.056;3.712;2023-08-06T02:40:45;0.20;;;0.20;;
23370;SDS011;11858;51.056;3.712;2023-08-06T02:43:11;0.98;;;0.82;;
23370;SDS011;11858;51.056;3.712;2023-08-06T02:45:37;0.10;;;0.10;;
23370;SDS011;11858;51.056;3.712;2023-08-06T02:48:03;0.10;;;0.10;;
23370;SDS011;11858;51.056;3.712;2023-08-06T02:50:29;0.55;;;0.47;;
23370;SDS011;11858;51.056;3.712;2023-08-06T02:52:54;3.22;;;1.13;;
23370;SDS011;11858;51.056;3.712;2023-08-06T02:55:20;0.98;;;0.90;;
23370;SDS011;11858;51.056;3.712;2023-08-06T02:57:46;15.38;;;2.40;;
23370;SDS011;11858;51.056;3.712;2023-08-06T03:00:11;2.05;;;0.80;;
23370;SDS011;11858;51.056;3.712;2023-08-06T03:02:37;0.25;;;0.25;;
23370;SDS011;11858;51.056;3.712;2023-08-06T03:05:03;1.52;;;0.80;;
23370;SDS011;11858;51.056;3.712;2023-08-06T03:07:29;2.33;;;0.98;;
23370;SDS011;11858;51.056;3.712;2023-08-06T03:09:55;0.52;;;0.52;;
23370;SDS011;11858;51.056;3.712;2023-08-06T03:12:20;0.47;;;0.47;;
23370;SDS011;11858;51.056;3.712;2023-08-06T03:14:46;0.35;;;0.25;;
23370;SDS011;11858;51.056;3.712;2023-08-06T03:17:12;0.13;;;0.13;;
23370;SDS011;11858;51.056;3.712;2023-08-06T03:19:37;0.20;;;0.20;;
23370;SDS011;11858;51.056;3.712;2023-08-06T03:22:03;7.57;;;2.45;;
23370;SDS011;11858;51.056;3.712;2023-08-06T03:24:29;1.13;;;0.68;;
23370;SDS011;11858;51.056;3.712;2023-08-06T03:26:54;0.40;;;0.40;;
23370;SDS011;11858;51.056;3.712;2023-08-06T03:29:20;0.10;;;0.10;;
23370;SDS011;11858;51.056;3.712;2023-08-06T03:31:47;4.63;;;0.70;;
23370;SDS011;11858;51.056;3.712;2023-08-06T03:34:12;3.42;;;1.08;;
23370;SDS011;11858;51.056;3.712;2023-08-06T03:36:38;0.38;;;0.38;;
23370;SDS011;11858;51.056;3.712;2023-08-06T03:39:04;3.83;;;2.75;;
23370;SDS011;11858;51.056;3.712;2023-08-06T03:41:29;4.65;;;0.75;;
23370;SDS011;11858;51.056;3.712;2023-08-06T03:43:55;0.25;;;0.25;;
23370;SDS011;11858;51.056;3.712;2023-08-06T03:46:21;0.10;;;0.10;;
23370;SDS011;11858;51.056;3.712;2023-08-06T03:48:46;0.13;;;0.13;;
23370;SDS011;11858;51.056;3.712;2023-08-06T03:51:12;6.55;;;1.63;;
23370;SDS011;11858;51.056;3.712;2023-08-06T03:53:38;0.10;;;0.10;;
23370;SDS011;11858;51.056;3.712;2023-08-06T03:56:03;0.77;;;0.47;;
23370;SDS011;11858;51.056;3.712;2023-08-06T03:58:29;1.40;;;0.43;;
23370;SDS011;11858;51.056;3.712;2023-08-06T04:01:01;0.20;;;0.20;;
23370;SDS011;11858;51.056;3.712;2023-08-06T04:03:28;0.35;;;0.35;;
23370;SDS011;11858;51.056;3.712;2023-08-06T04:05:54;0.20;;;0.20;;
23370;SDS011;11858;51.056;3.712;2023-08-06T04:08:20;0.20;;;0.20;;
23370;SDS011;11858;51.056;3.712;2023-08-06T04:10:49;0.82;;;0.68;;
23370;SDS011;11858;51.056;3.712;2023-08-06T04:13:15;13.63;;;1.50;;
23370;SDS011;11858;51.056;3.712;2023-08-06T04:15:41;1.45;;;1.23;;
23370;SDS011;11858;51.056;3.712;2023-08-06T04:18:07;0.20;;;0.20;;
23370;SDS011;11858;51.056;3.712;2023-08-06T04:20:32;0.95;;;0.65;;
23370;SDS011;11858;51.056;3.712;2023-08-06T04:22:58;3.50;;;1.05;;
23370;SDS011;11858;51.056;3.712;2023-08-06T04:25:24;0.30;;;0.30;;
23370;SDS011;11858;51.056;3.712;2023-08-06T04:27:50;0.10;;;0.10;;
23370;SDS011;11858;51.056;3.712;2023-08-06T04:30:15;0.10;;;0.10;;
23370;SDS011;11858;51.056;3.712;2023-08-06T04:32:41;0.40;;;0.40;;
23370;SDS011;11858;51.056;3.712;2023-08-06T04:35:07;0.10;;;0.10;;
23370;SDS011;11858;51.056;3.712;2023-08-06T04:37:32;0.20;;;0.20;;
23370;SDS011;11858;51.056;3.712;2023-08-06T04:39:58;0.70;;;0.70;;
23370;SDS011;11858;51.056;3.712;2023-08-06T04:42:24;0.40;;;0.40;;
23370;SDS011;11858;51.056;3.712;2023-08-06T04:44:50;0.52;;;0.52;;
23370;SDS011;11858;51.056;3.712;2023-08-06T04:47:15;1.08;;;0.65;;
23370;SDS011;11858;51.056;3.712;2023-08-06T04:49:41;1.75;;;1.10;;
23370;SDS011;11858;51.056;3.712;2023-08-06T04:52:07;0.20;;;0.20;;
23370;SDS011;11858;51.056;3.712;2023-08-06T04:54:33;0.20;;;0.20;;
23370;SDS011;11858;51.056;3.712;2023-08-06T04:56:59;0.30;;;0.30;;
23370;SDS011;11858;51.056;3.712;2023-08-06T04:59:24;0.38;;;0.38;;
23370;SDS011;11858;51.056;3.712;2023-08-06T05:01:50;0.95;;;0.82;;
23370;SDS011;11858;51.056;3.712;2023-08-06T05:04:15;1.23;;;0.82;;
23370;SDS011;11858;51.056;3.712;2023-08-06T05:06:41;0.95;;;0.73;;
23370;SDS011;11858;51.056;3.712;2023-08-06T05:09:07;0.50;;;0.50;;
23370;SDS011;11858;51.056;3.712;2023-08-06T05:11:32;1.40;;;0.52;;
23370;SDS011;11858;51.056;3.712;2023-08-06T05:13:58;1.33;;;1.05;;
23370;SDS011;11858;51.056;3.712;2023-08-06T05:16:23;0.52;;;0.52;;
23370;SDS011;11858;51.056;3.712;2023-08-06T05:18:49;3.58;;;1.77;;
23370;SDS011;11858;51.056;3.712;2023-08-06T05:21:15;2.05;;;0.93;;
23370;SDS011;11858;51.056;3.712;2023-08-06T05:23:41;0.28;;;0.28;;
23370;SDS011;11858;51.056;3.712;2023-08-06T05:26:07;0.40;;;0.40;;
23370;SDS011;11858;51.056;3.712;2023-08-06T05:28:34;0.70;;;0.70;;
23370;SDS011;11858;51.056;3.712;2023-08-06T05:31:02;1.55;;;0.93;;
23370;SDS011;11858;51.056;3.712;2023-08-06T05:33:29;0.45;;;0.45;;
23370;SDS011;11858;51.056;3.712;2023-08-06T05:35:55;0.22;;;0.22;;
23370;SDS011;11858;51.056;3.712;2023-08-06T05:38:20;0.68;;;0.68;;
23370;SDS011;11858;51.056;3.712;2023-08-06T05:40:46;0.30;;;0.30;;
23370;SDS011;11858;51.056;3.712;2023-08-06T05:43:12;20.08;;;1.75;;
23370;SDS011;11858;51.056;3.712;2023-08-06T05:45:38;0.50;;;0.50;;
23370;SDS011;11858;51.056;3.712;2023-08-06T05:48:04;4.97;;;2.25;;
23370;SDS011;11858;51.056;3.712;2023-08-06T05:50:29;0.38;;;0.38;;
23370;SDS011;11858;51.056;3.712;2023-08-06T05:52:55;0.32;;;0.32;;
23370;SDS011;11858;51.056;3.712;2023-08-06T05:55:21;1.75;;;0.80;;
23370;SDS011;11858;51.056;3.712;2023-08-06T05:57:47;4.57;;;1.23;;
23370;SDS011;11858;51.056;3.712;2023-08-06T06:00:12;1.55;;;0.75;;
23370;SDS011;11858;51.056;3.712;2023-08-06T06:02:38;2.97;;;0.95;;
23370;SDS011;11858;51.056;3.712;2023-08-06T06:05:04;0.40;;;0.40;;
23370;SDS011;11858;51.056;3.712;2023-08-06T06:07:30;6.38;;;1.00;;
23370;SDS011;11858;51.056;3.712;2023-08-06T06:09:56;0.20;;;0.20;;
23370;SDS011;11858;51.056;3.712;2023-08-06T06:12:21;0.45;;;0.32;;
23370;SDS011;11858;51.056;3.712;2023-08-06T06:14:47;0.40;;;0.20;;
23370;SDS011;11858;51.056;3.712;2023-08-06T06:17:13;0.20;;;0.20;;
23370;SDS011;11858;51.056;3.712;2023-08-06T06:19:38;0.20;;;0.20;;
23370;SDS011;11858;51.056;3.712;2023-08-06T06:22:04;0.20;;;0.20;;
23370;SDS011;11858;51.056;3.712;2023-08-06T06:24:30;0.68;;;0.68;;
23370;SDS011;11858;51.056;3.712;2023-08-06T06:26:55;0.30;;;0.30;;
23370;SDS011;11858;51.056;3.712;2023-08-06T06:29:21;0.30;;;0.30;;
23370;SDS011;11858;51.056;3.712;2023-08-06T06:31:46;1.40;;;0.57;;
23370;SDS011;11858;51.056;3.712;2023-08-06T06:34:12;0.30;;;0.30;;
23370;SDS011;11858;51.056;3.712;2023-08-06T06:36:38;0.20;;;0.20;;
23370;SDS011;11858;51.056;3.712;2023-08-06T06:39:03;0.85;;;0.40;;
23370;SDS011;11858;51.056;3.712;2023-08-06T06:41:35;0.20;;;0.20;;
23370;SDS011;11858;51.056;3.712;2023-08-06T06:44:00;0.70;;;0.32;;
23370;SDS011;11858;51.056;3.712;2023-08-06T06:46:26;6.13;;;1.30;;
23370;SDS011;11858;51.056;3.712;2023-08-06T06:48:52;0.32;;;0.32;;
23370;SDS011;11858;51.056;3.712;2023-08-06T06:51:17;0.60;;;0.60;;
23370;SDS011;11858;51.056;3.712;2023-08-06T06:53:43;0.40;;;0.40;;
23370;SDS011;11858;51.056;3.712;2023-08-06T06:56:09;1.50;;;1.40;;
23370;SDS011;11858;51.056;3.712;2023-08-06T06:58:34;0.40;;;0.40;;
23370;SDS011;11858;51.056;3.712;2023-08-06T07:01:00;0.40;;;0.40;;
23370;SDS011;11858;51.056;3.712;2023-08-06T07:03:26;0.40;;;0.40;;
23370;SDS011;11858;51.056;3.712;2023-08-06T07:05:51;0.50;;;0.50;;
23370;SDS011;11858;51.056;3.712;2023-08-06T07:08:21;2.00;;;1.90;;
23370;SDS011;11858;51.056;3.712;2023-08-06T07:10:47;0.50;;;0.50;;
23370;SDS011;11858;51.056;3.712;2023-08-06T07:13:13;4.32;;;2.55;;
23370;SDS011;11858;51.056;3.712;2023-08-06T07:15:38;0.55;;;0.55;;
23370;SDS011;11858;51.056;3.712;2023-08-06T07:18:04;0.70;;;0.70;;
23370;SDS011;11858;51.056;3.712;2023-08-06T07:20:29;5.15;;;1.50;;
23370;SDS011;11858;51.056;3.712;2023-08-06T07:22:58;0.75;;;0.75;;
23370;SDS011;11858;51.056;3.712;2023-08-06T07:25:24;0.65;;;0.65;;
23370;SDS011;11858;51.056;3.712;2023-08-06T07:27:49;0.95;;;0.77;;
23370;SDS011;11858;51.056;3.712;2023-08-06T07:30:15;2.35;;;0.93;;
23370;SDS011;11858;51.056;3.712;2023-08-06T07:32:41;0.80;;;0.80;;
23370;SDS011;11858;51.056;3.712;2023-08-06T07:35:06;6.38;;;0.80;;
23370;SDS011;11858;51.056;3.712;2023-08-06T07:37:37;1.10;;;1.10;;
23370;SDS011;11858;51.056;3.712;2023-08-06T07:40:03;0.80;;;0.80;;
23370;SDS011;11858;51.056;3.712;2023-08-06T07:42:30;0.70;;;0.70;;
23370;SDS011;11858;51.056;3.712;2023-08-06T07:44:56;0.70;;;0.70;;
23370;SDS011;11858;51.056;3.712;2023-08-06T07:47:22;3.67;;;1.55;;
23370;SDS011;11858;51.056;3.712;2023-08-06T07:49:48;3.83;;;0.90;;
23370;SDS011;11858;51.056;3.712;2023-08-06T07:52:14;2.83;;;0.80;;
23370;SDS011;11858;51.056;3.712;2023-08-06T07:54:40;0.80;;;0.80;;
23370;SDS011;11858;51.056;3.712;2023-08-06T07:57:05;2.67;;;2.53;;
23370;SDS011;11858;51.056;3.712;2023-08-06T07:59:31;0.95;;;0.95;;
23370;SDS011;11858;51.056;3.712;2023-08-06T08:01:57;3.40;;;1.90;;
23370;SDS011;11858;51.056;3.712;2023-08-06T08:04:23;13.60;;;1.85;;
23370;SDS011;11858;51.056;3.712;2023-08-06T08:06:49;2.00;;;1.80;;
23370;SDS011;11858;51.056;3.712;2023-08-06T08:09:15;1.83;;;1.50;;
23370;SDS011;11858;51.056;3.712;2023-08-06T08:11:40;1.02;;;1.02;;
23370;SDS011;11858;51.056;3.712;2023-08-06T08:14:06;0.95;;;0.95;;
23370;SDS011;11858;51.056;3.712;2023-08-06T08:16:32;1.75;;;1.65;;
23370;SDS011;11858;51.056;3.712;2023-08-06T08:18:58;1.05;;;1.05;;
23370;SDS011;11858;51.056;3.712;2023-08-06T08:21:24;0.95;;;0.77;;
23370;SDS011;11858;51.056;3.712;2023-08-06T08:23:50;0.80;;;0.80;;
23370;SDS011;11858;51.056;3.712;2023-08-06T08:26:17;1.52;;;1.42;;
23370;SDS011;11858;51.056;3.712;2023-08-06T08:28:43;1.65;;;1.55;;
23370;SDS011;11858;51.056;3.712;2023-08-06T08:31:09;1.38;;;1.30;;
23370;SDS011;11858;51.056;3.712;2023-08-06T08:33:36;1.20;;;1.20;;
23370;SDS011;11858;51.056;3.712;2023-08-06T08:36:02;1.15;;;1.15;;
23370;SDS011;11858;51.056;3.712;2023-08-06T08:38:28;9.57;;;2.55;;
23370;SDS011;11858;51.056;3.712;2023-08-06T08:40:54;3.30;;;1.88;;
23370;SDS011;11858;51.056;3.712;2023-08-06T08:43:23;1.00;;;1.00;;
23370;SDS011;11858;51.056;3.712;2023-08-06T08:45:50;4.38;;;1.20;;
23370;SDS011;11858;51.056;3.712;2023-08-06T08:48:17;1.17;;;1.08;;
23370;SDS011;11858;51.056;3.712;2023-08-06T08:50:44;2.13;;;1.33;;
23370;SDS011;11858;51.056;3.712;2023-08-06T08:53:12;0.75;;;0.75;;
23370;SDS011;11858;51.056;3.712;2023-08-06T08:55:39;3.70;;;1.17;;
23370;SDS011;11858;51.056;3.712;2023-08-06T08:58:07;1.92;;;0.75;;
23370;SDS011;11858;51.056;3.712;2023-08-06T09:00:33;0.70;;;0.70;;
23370;SDS011;11858;51.056;3.712;2023-08-06T09:03:00;1.23;;;1.10;;
23370;SDS011;11858;51.056;3.712;2023-08-06T09:05:28;6.20;;;2.40;;
23370;SDS011;11858;51.056;3.712;2023-08-06T09:07:56;0.70;;;0.70;;
23370;SDS011;11858;51.056;3.712;2023-08-06T09:10:33;7.50;;;1.45;;
23370;SDS011;11858;51.056;3.712;2023-08-06T09:13:01;1.00;;;1.00;;
23370;SDS011;11858;51.056;3.712;2023-08-06T09:15:28;1.10;;;1.00;;
23370;SDS011;11858;51.056;3.712;2023-08-06T09:17:55;1.38;;;1.35;;
23370;SDS011;11858;51.056;3.712;2023-08-06T09:20:20;1.48;;;0.90;;
23370;SDS011;11858;51.056;3.712;2023-08-06T09:22:46;12.15;;;1.13;;
23370;SDS011;11858;51.056;3.712;2023-08-06T09:25:20;5.15;;;1.38;;
23370;SDS011;11858;51.056;3.712;2023-08-06T09:27:50;0.47;;;0.47;;
23370;SDS011;11858;51.056;3.712;2023-08-06T09:30:29;0.50;;;0.50;;
23370;SDS011;11858;51.056;3.712;2023-08-06T09:32:56;1.13;;;0.90;;
23370;SDS011;11858;51.056;3.712;2023-08-06T09:35:22;0.40;;;0.40;;
23370;SDS011;11858;51.056;3.712;2023-08-06T09:37:48;1.33;;;0.93;;
23370;SDS011;11858;51.056;3.712;2023-08-06T09:42:51;10.60;;;3.72;;
23370;SDS011;11858;51.056;3.712;2023-08-06T09:45:17;0.40;;;0.40;;
23370;SDS011;11858;51.056;3.712;2023-08-06T09:47:43;1.15;;;1.05;;
23370;SDS011;11858;51.056;3.712;2023-08-06T09:50:16;0.40;;;0.40;;
23370;SDS011;11858;51.056;3.712;2023-08-06T09:52:43;4.72;;;1.35;;
23370;SDS011;11858;51.056;3.712;2023-08-06T09:55:13;0.73;;;0.73;;
23370;SDS011;11858;51.056;3.712;2023-08-06T09:57:39;0.90;;;0.90;;
23370;SDS011;11858;51.056;3.712;2023-08-06T10:00:06;0.40;;;0.40;;
23370;SDS011;11858;51.056;3.712;2023-08-06T10:02:35;2.63;;;1.60;;
23370;SDS011;11858;51.056;3.712;2023-08-06T10:05:04;4.03;;;1.30;;
23370;SDS011;11858;51.056;3.712;2023-08-06T10:07:31;7.32;;;0.88;;
23370;SDS011;11858;51.056;3.712;2023-08-06T10:09:56;1.35;;;1.25;;
23370;SDS011;11858;51.056;3.712;2023-08-06T10:12:23;1.13;;;1.13;;
23370;SDS011;11858;51.056;3.712;2023-08-06T10:14:51;6.28;;;2.13;;
23370;SDS011;11858;51.056;3.712;2023-08-06T10:17:19;1.40;;;1.30;;
23370;SDS011;11858;51.056;3.712;2023-08-06T10:19:47;1.30;;;1.30;;
23370;SDS011;11858;51.056;3.712;2023-08-06T10:22:14;1.80;;;1.70;;
23370;SDS011;11858;51.056;3.712;2023-08-06T10:24:49;4.13;;;2.28;;
23370;SDS011;11858;51.056;3.712;2023-08-06T10:32:56;2.60;;;2.45;;
23370;SDS011;11858;51.056;3.712;2023-08-06T10:35:38;2.70;;;2.60;;
23370;SDS011;11858;51.056;3.712;2023-08-06T10:38:11;2.20;;;2.10;;
23370;SDS011;11858;51.056;3.712;2023-08-06T10:40:39;2.15;;;2.05;;
23370;SDS011;11858;51.056;3.712;2023-08-06T10:43:06;3.60;;;2.80;;
23370;SDS011;11858;51.056;3.712;2023-08-06T10:45:34;2.40;;;2.30;;
23370;SDS011;11858;51.056;3.712;2023-08-06T10:48:00;3.40;;;2.67;;
23370;SDS011;11858;51.056;3.712;2023-08-06T10:50:27;2.00;;;1.90;;
23370;SDS011;11858;51.056;3.712;2023-08-06T10:52:52;1.83;;;1.73;;
23370;SDS011;11858;51.056;3.712;2023-08-06T10:57:51;1.10;;;1.10;;
23370;SDS011;11858;51.056;3.712;2023-08-06T11:00:17;1.30;;;1.30;;
23370;SDS011;11858;51.056;3.712;2023-08-06T11:02:43;1.20;;;1.10;;
23370;SDS011;11858;51.056;3.712;2023-08-06T11:05:11;0.70;;;0.70;;
23370;SDS011;11858;51.056;3.712;2023-08-06T11:07:37;1.00;;;0.75;;
23370;SDS011;11858;51.056;3.712;2023-08-06T11:10:07;0.55;;;0.55;;
23370;SDS011;11858;51.056;3.712;2023-08-06T11:12:34;0.50;;;0.50;;
23370;SDS011;11858;51.056;3.712;2023-08-06T11:15:01;0.30;;;0.30;;
23370;SDS011;11858;51.056;3.712;2023-08-06T11:17:28;0.63;;;0.63;;
23370;SDS011;11858;51.056;3.712;2023-08-06T11:19:54;0.65;;;0.63;;
23370;SDS011;11858;51.056;3.712;2023-08-06T11:22:20;0.50;;;0.50;;
23370;SDS011;11858;51.056;3.712;2023-08-06T11:24:47;1.48;;;0.73;;
23370;SDS011;11858;51.056;3.712;2023-08-06T11:27:15;0.30;;;0.30;;
23370;SDS011;11858;51.056;3.712;2023-08-06T11:29:42;5.50;;;0.70;;
23370;SDS011;11858;51.056;3.712;2023-08-06T11:32:09;0.75;;;0.75;;
23370;SDS011;11858;51.056;3.712;2023-08-06T11:34:36;1.23;;;1.10;;
23370;SDS011;11858;51.056;3.712;2023-08-06T11:37:05;0.40;;;0.40;;
23370;SDS011;11858;51.056;3.712;2023-08-06T11:39:34;1.20;;;0.63;;
23370;SDS011;11858;51.056;3.712;2023-08-06T11:42:04;4.35;;;1.05;;
23370;SDS011;11858;51.056;3.712;2023-08-06T11:44:31;6.05;;;2.53;;
23370;SDS011;11858;51.056;3.712;2023-08-06T11:47:01;1.58;;;1.10;;
23370;SDS011;11858;51.056;3.712;2023-08-06T11:52:08;1.20;;;1.20;;
23370;SDS011;11858;51.056;3.712;2023-08-06T11:55:03;1.40;;;1.40;;
23370;SDS011;11858;51.056;3.712;2023-08-06T11:57:35;1.45;;;0.63;;
23370;SDS011;11858;51.056;3.712;2023-08-06T12:00:12;4.53;;;1.92;;
23370;SDS011;11858;51.056;3.712;2023-08-06T12:02:42;1.52;;;1.42;;
23370;SDS011;11858;51.056;3.712;2023-08-06T12:05:16;1.85;;;1.38;;
23370;SDS011;11858;51.056;3.712;2023-08-06T12:07:49;1.20;;;1.20;;
23370;SDS011;11858;51.056;3.712;2023-08-06T12:10:16;7.38;;;2.05;;
23370;SDS011;11858;51.056;3.712;2023-08-06T12:12:47;1.73;;;1.63;;
23370;SDS011;11858;51.056;3.712;2023-08-06T12:15:13;1.80;;;1.70;;
23370;SDS011;11858;51.056;3.712;2023-08-06T12:17:39;1.88;;;1.77;;
23370;SDS011;11858;51.056;3.712;2023-08-06T12:20:05;2.75;;;2.10;;
23370;SDS011;11858;51.056;3.712;2023-08-06T12:22:32;2.63;;;2.10;;
23370;SDS011;11858;51.056;3.712;2023-08-06T12:25:02;1.40;;;1.40;;
23370;SDS011;11858;51.056;3.712;2023-08-06T12:27:32;2.90;;;1.40;;
23370;SDS011;11858;51.056;3.712;2023-08-06T12:30:01;1.42;;;1.40;;
23370;SDS011;11858;51.056;3.712;2023-08-06T12:32:28;1.85;;;1.48;;
23370;SDS011;11858;51.056;3.712;2023-08-06T12:34:54;1.00;;;1.00;;
23370;SDS011;11858;51.056;3.712;2023-08-06T12:37:20;2.00;;;1.65;;
23370;SDS011;11858;51.056;3.712;2023-08-06T12:39:46;2.25;;;1.70;;
23370;SDS011;11858;51.056;3.712;2023-08-06T12:42:12;2.53;;;2.33;;
23370;SDS011;11858;51.056;3.712;2023-08-06T12:44:38;5.15;;;1.90;;
23370;SDS011;11858;51.056;3.712;2023-08-06T12:47:03;4.60;;;2.80;;
23370;SDS011;11858;51.056;3.712;2023-08-06T12:49:29;2.47;;;2.38;;
23370;SDS011;11858;51.056;3.712;2023-08-06T12:51:56;2.38;;;2.03;;
23370;SDS011;11858;51.056;3.712;2023-08-06T12:54:23;1.73;;;1.63;;
23370;SDS011;11858;51.056;3.712;2023-08-06T12:56:49;3.25;;;1.80;;
23370;SDS011;11858;51.056;3.712;2023-08-06T12:59:15;2.40;;;2.13;;
23370;SDS011;11858;51.056;3.712;2023-08-06T13:01:43;1.30;;;1.30;;
23370;SDS011;11858;51.056;3.712;2023-08-06T13:04:09;1.40;;;1.40;;
23370;SDS011;11858;51.056;3.712;2023-08-06T13:06:35;2.03;;;1.90;;
23370;SDS011;11858;51.056;3.712;2023-08-06T13:09:20;2.08;;;1.98;;
23370;SDS011;11858;51.056;3.712;2023-08-06T13:11:46;2.35;;;1.83;;
23370;SDS011;11858;51.056;3.712;2023-08-06T13:14:15;4.82;;;2.47;;
23370;SDS011;11858;51.056;3.712;2023-08-06T13:16:41;1.80;;;1.70;;
23370;SDS011;11858;51.056;3.712;2023-08-06T13:19:08;2.50;;;1.80;;
23370;SDS011;11858;51.056;3.712;2023-08-06T13:24:03;1.83;;;1.67;;
23370;SDS011;11858;51.056;3.712;2023-08-06T13:26:29;7.18;;;2.10;;
23370;SDS011;11858;51.056;3.712;2023-08-06T13:28:56;0.90;;;0.90;;
23370;SDS011;11858;51.056;3.712;2023-08-06T13:31:23;0.93;;;0.93;;
23370;SDS011;11858;51.056;3.712;2023-08-06T13:33:49;2.15;;;2.00;;
23370;SDS011;11858;51.056;3.712;2023-08-06T13:36:15;1.67;;;1.60;;
23370;SDS011;11858;51.056;3.712;2023-08-06T13:38:41;2.58;;;2.05;;
23370;SDS011;11858;51.056;3.712;2023-08-06T13:41:07;2.13;;;2.03;;
23370;SDS011;11858;51.056;3.712;2023-08-06T13:43:33;2.92;;;2.10;;
23370;SDS011;11858;51.056;3.712;2023-08-06T13:45:58;6.07;;;2.20;;
23370;SDS011;11858;51.056;3.712;2023-08-06T13:48:25;1.98;;;1.75;;
23370;SDS011;11858;51.056;3.712;2023-08-06T13:50:51;2.00;;;1.90;;
23370;SDS011;11858;51.056;3.712;2023-08-06T13:53:16;2.28;;;2.17;;
23370;SDS011;11858;51.056;3.712;2023-08-06T13:55:42;2.35;;;2.25;;
23370;SDS011;11858;51.056;3.712;2023-08-06T13:58:08;1.55;;;1.45;;
23370;SDS011;11858;51.056;3.712;2023-08-06T14:00:35;1.15;;;1.15;;
23370;SDS011;11858;51.056;3.712;2023-08-06T14:03:01;1.70;;;1.70;;
23370;SDS011;11858;51.056;3.712;2023-08-06T14:05:27;2.58;;;2.47;;
23370;SDS011;11858;51.056;3.712;2023-08-06T14:07:53;2.10;;;2.00;;
23370;SDS011;11858;51.056;3.712;2023-08-06T14:10:18;5.28;;;4.68;;
23370;SDS011;11858;51.056;3.712;2023-08-06T14:12:44;4.20;;;4.00;;
23370;SDS011;11858;51.056;3.712;2023-08-06T14:15:10;6.65;;;6.35;;
23370;SDS011;11858;51.056;3.712;2023-08-06T14:17:36;7.07;;;6.63;;
23370;SDS011;11858;51.056;3.712;2023-08-06T14:20:02;44.78;;;9.48;;
23370;SDS011;11858;51.056;3.712;2023-08-06T14:22:29;8.27;;;7.80;;
23370;SDS011;11858;51.056;3.712;2023-08-06T14:24:56;9.90;;;9.30;;
23370;SDS011;11858;51.056;3.712;2023-08-06T14:27:27;10.23;;;9.73;;
23370;SDS011;11858;51.056;3.712;2023-08-06T14:29:53;13.82;;;13.02;;
23370;SDS011;11858;51.056;3.712;2023-08-06T14:32:19;14.60;;;13.80;;
23370;SDS011;11858;51.056;3.712;2023-08-06T14:34:45;15.38;;;14.48;;
23370;SDS011;11858;51.056;3.712;2023-08-06T14:37:10;18.58;;;17.15;;
23370;SDS011;11858;51.056;3.712;2023-08-06T14:39:36;16.30;;;15.30;;
23370;SDS011;11858;51.056;3.712;2023-08-06T14:42:03;18.95;;;17.55;;
23370;SDS011;11858;51.056;3.712;2023-08-06T14:44:29;17.98;;;16.88;;
23370;SDS011;11858;51.056;3.712;2023-08-06T14:46:55;20.85;;;18.95;;
23370;SDS011;11858;51.056;3.712;2023-08-06T14:49:21;19.65;;;18.45;;
23370;SDS011;11858;51.056;3.712;2023-08-06T14:51:46;20.73;;;18.85;;
23370;SDS011;11858;51.056;3.712;2023-08-06T14:54:12;20.77;;;18.98;;
23370;SDS011;11858;51.056;3.712;2023-08-06T14:56:38;20.20;;;18.90;;
23370;SDS011;11858;51.056;3.712;2023-08-06T14:59:03;19.73;;;18.52;;
23370;SDS011;11858;51.056;3.712;2023-08-06T15:01:29;19.20;;;18.10;;